Time;durP1;ratioP1;P1;durP2;ratioP2;P2;SDS_P1;SDS_P2;PMS_P1;PMS_P2;Temp;Humidity;BMP_temperature;BMP_pressure;BME280_temperature;BME280_humidity;BME280_pressure;Samples;Min_cycle;Max_cycle;Signal;HPM_P1;HPM_P2
2023/02/23 00:01:16;;;;;;;30.20;16.15;;;10.90;99.90;;;;;;5025960;28;20026;-68
2023/02/23 00:03:41;;;;;;;30.25;15.70;;;10.90;99.90;;;;;;5025670;28;20044;-67
2023/02/23 00:06:08;;;;;;;37.83;16.43;;;11.00;99.90;;;;;;5025827;28;20057;-66
2023/02/23 00:08:35;;;;;;;28.45;15.75;;;10.90;99.90;;;;;;5025766;28;20025;-67
2023/02/23 00:11:05;;;;;;;29.55;16.50;;;11.00;99.90;;;;;;5025438;28;20022;-70
2023/02/23 00:13:36;;;;;;;28.20;15.57;;;10.90;99.90;;;;;;5038313;28;20040;-64
2023/02/23 00:16:13;;;;;;;34.97;16.10;;;11.00;99.90;;;;;;5045688;28;20535;-65
2023/02/23 00:18:52;;;;;;;33.03;16.95;;;10.90;99.90;;;;;;5045520;28;20032;-65
2023/02/23 00:21:23;;;;;;;33.65;14.88;;;10.90;99.90;;;;;;5036960;28;20034;-63
2023/02/23 00:23:51;;;;;;;30.35;15.85;;;11.00;99.90;;;;;;5025967;28;20036;-64
2023/02/23 00:26:25;;;;;;;28.35;15.55;;;10.90;99.90;;;;;;5026006;28;20191;-64
2023/02/23 00:28:52;;;;;;;30.65;16.55;;;11.00;99.90;;;;;;5025889;28;20036;-63
2023/02/23 00:31:24;;;;;;;26.38;15.77;;;10.90;99.90;;;;;;5024477;28;20041;-70
2023/02/23 00:33:53;;;;;;;28.90;16.33;;;10.80;99.90;;;;;;5026800;28;20029;-64
2023/02/23 00:36:20;;;;;;;31.98;16.15;;;10.80;99.90;;;;;;5029243;28;20037;-68
2023/02/23 00:38:45;;;;;;;28.85;16.42;;;10.80;99.90;;;;;;5028904;28;20421;-69
2023/02/23 00:41:17;;;;;;;32.60;16.47;;;10.80;99.90;;;;;;5028837;28;20037;-67
2023/02/23 00:43:49;;;;;;;33.50;16.25;;;10.80;99.90;;;;;;5029146;28;20493;-70
2023/02/23 00:46:17;;;;;;;34.50;17.20;;;10.80;99.90;;;;;;5029469;28;20386;-70
2023/02/23 00:48:44;;;;;;;35.70;17.75;;;10.80;99.90;;;;;;5029571;28;20164;-68
2023/02/23 00:51:10;;;;;;;40.65;17.48;;;10.70;99.90;;;;;;5028818;28;20026;-69
2023/02/23 00:53:35;;;;;;;35.45;17.58;;;10.70;99.90;;;;;;5030246;28;20097;-70
2023/02/23 00:56:04;;;;;;;35.13;17.20;;;10.80;99.90;;;;;;5028881;28;20041;-70
2023/02/23 00:58:30;;;;;;;30.85;16.10;;;10.70;99.90;;;;;;5028157;28;20444;-71
2023/02/23 01:00:58;;;;;;;29.77;16.25;;;10.80;99.90;;;;;;5028962;28;20030;-70
2023/02/23 01:03:24;;;;;;;31.60;16.10;;;10.80;99.90;;;;;;5028720;28;20029;-71
2023/02/23 01:05:50;;;;;;;29.98;17.02;;;10.80;99.90;;;;;;5028326;28;20033;-71
2023/02/23 01:08:17;;;;;;;38.13;18.00;;;10.80;99.90;;;;;;5029330;28;20030;-67
2023/02/23 01:10:45;;;;;;;41.92;17.58;;;10.80;99.90;;;;;;5028257;28;20040;-71
2023/02/23 01:13:11;;;;;;;32.05;17.58;;;10.80;99.90;;;;;;5027028;28;20405;-71
2023/02/23 01:15:42;;;;;;;29.17;16.87;;;10.80;99.90;;;;;;5028025;28;20042;-64
2023/02/23 01:18:08;;;;;;;30.85;17.50;;;10.80;99.90;;;;;;5027958;28;20303;-69
2023/02/23 01:20:35;;;;;;;36.17;17.33;;;10.80;99.90;;;;;;5028095;28;20371;-68
2023/02/23 01:23:01;;;;;;;26.40;17.00;;;10.70;99.90;;;;;;5028776;28;20056;-66
2023/02/23 01:25:27;;;;;;;;;;;10.70;99.90;;;;;;5010361;28;20077;-67
2023/02/23 01:27:53;;;;;;;30.67;18.25;;;10.70;99.90;;;;;;5027829;28;19909;-66
2023/02/23 01:30:19;;;;;;;38.03;19.65;;;10.60;99.90;;;;;;5028179;28;20033;-64
2023/02/23 01:32:45;;;;;;;37.67;19.15;;;10.50;99.90;;;;;;5008318;28;20049;-63
2023/02/23 01:35:11;;;;;;;33.33;19.20;;;10.60;99.90;;;;;;5008051;28;20044;-67
2023/02/23 01:37:39;;;;;;;35.40;20.83;;;10.50;99.90;;;;;;5010840;28;20041;-69
2023/02/23 01:40:27;;;;;;;43.95;22.90;;;10.50;99.90;;;;;;5027843;28;20561;-68
2023/02/23 01:42:56;;;;;;;41.33;23.33;;;10.50;99.90;;;;;;5027802;28;20041;-64
2023/02/23 01:45:36;;;;;;;40.60;21.77;;;10.40;99.90;;;;;;5026650;28;20086;-70
2023/02/23 01:48:21;;;;;;;42.40;21.20;;;10.30;99.90;;;;;;5027768;28;20382;-64
2023/02/23 01:50:58;;;;;;;39.65;21.33;;;10.30;99.90;;;;;;5026442;28;20029;-69
2023/02/23 01:53:26;;;;;;;38.45;21.50;;;10.30;99.90;;;;;;5024192;28;20025;-68
2023/02/23 01:56:15;;;;;;;39.33;22.13;;;10.40;99.90;;;;;;5027594;28;20036;-67
2023/02/23 01:58:45;;;;;;;42.08;22.70;;;10.40;99.90;;;;;;5027082;28;20540;-68
2023/02/23 02:01:12;;;;;;;42.60;21.33;;;10.30;99.90;;;;;;5027407;28;20519;-69
2023/02/23 02:03:42;;;;;;;36.63;20.92;;;10.30;99.90;;;;;;5027569;28;20116;-67
2023/02/23 02:06:12;;;;;;;37.95;21.08;;;10.10;99.90;;;;;;5027420;28;20053;-68
2023/02/23 02:08:45;;;;;;;39.80;21.92;;;10.10;99.90;;;;;;5027740;28;20037;-64
2023/02/23 02:11:29;;;;;;;38.42;20.95;;;10.00;99.90;;;;;;5027789;28;20132;-65
2023/02/23 02:13:58;;;;;;;40.28;22.83;;;10.00;99.90;;;;;;5027901;28;20029;-63
2023/02/23 02:16:41;;;;;;;38.88;22.67;;;10.00;99.90;;;;;;5027429;28;20025;-64
2023/02/23 02:19:47;;;;;;;46.30;23.33;;;10.00;99.90;;;;;;5027702;28;20029;-66
2023/02/23 02:22:24;;;;;;;41.05;24.50;;;10.00;99.90;;;;;;5027172;28;20033;-68
2023/02/23 02:25:12;;;;;;;;;;;9.90;99.90;;;;;;5007600;28;20026;-68
2023/02/23 02:27:56;;;;;;;42.75;24.17;;;9.90;99.90;;;;;;5005966;28;19913;-64
2023/02/23 02:30:53;;;;;;;48.08;25.70;;;9.80;99.90;;;;;;5037907;28;20029;-64
2023/02/23 02:33:34;;;;;;;42.80;24.35;;;9.80;99.90;;;;;;5047021;28;20043;-64
2023/02/23 02:36:37;;;;;;;44.13;25.10;;;9.80;99.90;;;;;;5046246;28;20577;-64
2023/02/23 02:39:23;;;;;;;48.95;25.80;;;9.70;99.90;;;;;;5046484;28;20029;-69
2023/02/23 02:42:00;;;;;;;48.75;26.63;;;9.60;99.90;;;;;;5046564;28;20087;-68
2023/02/23 02:44:40;;;;;;;49.40;25.58;;;9.60;99.90;;;;;;5046460;28;20033;-71
2023/02/23 02:47:16;;;;;;;44.15;25.90;;;9.60;99.90;;;;;;5045280;28;20432;-68
2023/02/23 02:50:00;;;;;;;48.53;26.73;;;9.60;99.90;;;;;;5046170;28;20043;-70
2023/02/23 02:52:43;;;;;;;41.97;24.50;;;9.60;99.90;;;;;;5029051;28;20112;-67
2023/02/23 02:55:12;;;;;;;46.97;25.83;;;9.40;99.90;;;;;;5026919;28;20386;-67
2023/02/23 02:57:39;;;;;;;48.78;27.67;;;9.40;99.90;;;;;;5025830;28;20048;-71
2023/02/23 04:18:41;;;;;;;62.10;32.00;;;8.30;99.90;;;;;;5013734;28;20519;-68
2023/02/23 04:21:07;;;;;;;65.10;30.10;;;8.30;99.90;;;;;;5029643;28;20112;-71
2023/02/23 04:23:34;;;;;;;53.03;29.00;;;8.30;99.90;;;;;;5029844;28;20264;-66
2023/02/23 04:26:00;;;;;;;55.58;28.90;;;8.20;99.90;;;;;;5029396;28;20521;-67
2023/02/23 04:28:27;;;;;;;48.17;26.17;;;8.20;99.90;;;;;;5029340;28;20025;-67
2023/02/23 04:30:52;;;;;;;;;;;8.10;99.90;;;;;;5029154;28;20061;-69
2023/02/23 04:33:20;;;;;;;53.78;28.48;;;8.00;99.90;;;;;;5029001;28;19963;-65
2023/02/23 04:35:46;;;;;;;57.35;30.95;;;8.10;99.90;;;;;;5029433;28;20025;-64
2023/02/23 04:38:12;;;;;;;59.17;30.50;;;8.00;99.90;;;;;;5029189;28;20057;-65
2023/02/23 04:40:37;;;;;;;54.13;29.27;;;8.00;99.90;;;;;;5029580;28;20100;-65
2023/02/23 04:43:03;;;;;;;54.77;28.27;;;8.00;99.90;;;;;;5029642;28;20397;-64
2023/02/23 04:45:29;;;;;;;52.90;28.70;;;8.00;99.90;;;;;;5028524;28;20033;-66
2023/02/23 04:47:55;;;;;;;49.72;26.88;;;8.00;99.90;;;;;;5027225;28;20021;-64
2023/02/23 04:50:21;;;;;;;54.70;30.43;;;8.10;99.90;;;;;;5035070;28;20036;-67
2023/02/23 04:52:46;;;;;;;54.17;29.33;;;8.10;99.90;;;;;;5029023;28;20087;-67
2023/02/23 04:55:20;;;;;;;60.10;30.20;;;8.00;99.90;;;;;;5029321;28;20172;-64
2023/02/23 04:57:45;;;;;;;52.65;28.00;;;8.00;99.90;;;;;;5029339;28;20295;-69
2023/02/23 05:00:12;;;;;;;52.00;28.20;;;8.10;99.90;;;;;;5029248;28;20107;-67
2023/02/23 05:02:38;;;;;;;;;;;8.00;99.90;;;;;;5028910;28;20037;-67
2023/02/23 05:05:04;;;;;;;55.85;26.48;;;8.00;99.90;;;;;;5028601;28;19909;-68
2023/02/23 05:07:30;;;;;;;49.05;27.98;;;8.00;99.90;;;;;;5028456;28;20092;-65
2023/02/23 05:09:55;;;;;;;47.43;27.10;;;8.00;99.90;;;;;;5026628;28;20068;-64
2023/02/23 05:12:21;;;;;;;48.73;26.37;;;8.00;99.90;;;;;;5024218;28;20508;-70
2023/02/23 05:14:47;;;;;;;44.07;25.87;;;8.00;99.90;;;;;;5027559;28;20038;-70
2023/02/23 05:17:12;;;;;;;40.30;24.48;;;7.90;99.90;;;;;;5027726;28;20296;-66
2023/02/23 05:19:38;;;;;;;47.23;25.33;;;7.70;99.90;;;;;;5024644;28;20037;-70
2023/02/23 05:22:03;;;;;;;48.00;26.03;;;7.80;99.90;;;;;;5027479;28;20151;-69
2023/02/23 05:24:29;;;;;;;50.43;26.93;;;7.80;99.90;;;;;;5027003;28;20405;-70
2023/02/23 05:26:55;;;;;;;53.97;28.07;;;7.80;99.90;;;;;;5027161;28;20095;-68
2023/02/23 05:29:20;;;;;;;47.90;27.07;;;7.70;99.90;;;;;;5027813;28;20034;-67
2023/02/23 05:31:47;;;;;;;41.80;24.00;;;7.70;99.90;;;;;;5026938;28;20405;-70
2023/02/23 05:34:13;;;;;;;49.78;22.83;;;7.60;99.90;;;;;;5028375;28;20837;-70
2023/02/23 05:36:39;;;;;;;47.92;25.67;;;7.50;99.90;;;;;;5027304;28;20524;-63
2023/02/23 05:39:04;;;;;;;53.80;25.70;;;7.60;99.90;;;;;;5027282;28;20033;-64
2023/02/23 05:41:30;;;;;;;51.10;26.00;;;7.50;99.90;;;;;;5025085;28;20033;-66
2023/02/23 05:43:56;;;;;;;38.70;23.07;;;7.50;99.90;;;;;;5026554;28;20055;-66
2023/02/23 05:46:24;;;;;;;44.37;24.27;;;7.40;99.90;;;;;;5026957;28;20041;-65
2023/02/23 05:48:59;;;;;;;42.97;23.15;;;7.40;99.90;;;;;;5027115;28;20669;-65
2023/02/23 05:51:26;;;;;;;44.00;23.90;;;7.40;99.90;;;;;;5026005;28;20037;-64
2023/02/23 05:53:52;;;;;;;43.22;24.17;;;7.30;99.90;;;;;;5025374;28;20497;-64
2023/02/23 05:56:21;;;;;;;32.90;18.27;;;7.40;99.90;;;;;;5026541;28;20044;-67
2023/02/23 05:58:52;;;;;;;32.10;19.48;;;7.20;99.90;;;;;;5026711;28;20041;-64
2023/02/23 06:01:19;;;;;;;38.78;18.40;;;7.20;99.90;;;;;;5026442;28;20029;-67
2023/02/23 06:03:45;;;;;;;34.67;20.30;;;7.20;99.90;;;;;;5026993;28;20040;-64
2023/02/23 06:06:11;;;;;;;33.95;18.27;;;7.10;99.90;;;;;;5025158;28;20022;-65
2023/02/23 06:08:37;;;;;;;34.75;20.92;;;7.10;99.90;;;;;;5027102;28;20417;-68
2023/02/23 06:11:02;;;;;;;37.90;19.77;;;7.20;99.90;;;;;;5026583;28;20024;-65
2023/02/23 06:13:29;;;;;;;48.83;21.98;;;7.10;99.90;;;;;;5026331;28;20056;-68
2023/02/23 06:15:54;;;;;;;38.70;21.52;;;7.10;99.90;;;;;;5027375;28;20120;-69
2023/02/23 06:18:21;;;;;;;45.60;24.23;;;7.00;99.90;;;;;;5026151;28;20176;-66
2023/02/23 06:20:46;;;;;;;49.13;25.55;;;6.90;99.90;;;;;;5027811;28;20033;-66
2023/02/23 06:23:14;;;;;;;38.95;22.88;;;7.00;99.90;;;;;;5025855;28;20048;-65
2023/02/23 06:25:40;;;;;;;39.03;22.08;;;7.00;99.90;;;;;;5026309;28;20400;-65
2023/02/23 06:28:07;;;;;;;46.83;24.60;;;6.90;99.90;;;;;;5026704;28;20510;-68
2023/02/23 06:30:33;;;;;;;51.40;26.05;;;7.00;99.90;;;;;;5025804;28;20147;-66
2023/02/23 06:32:59;;;;;;;50.28;26.83;;;7.00;99.90;;;;;;5025417;28;20116;-64
2023/02/23 06:35:26;;;;;;;49.43;26.23;;;7.00;99.90;;;;;;5026051;28;20049;-63
2023/02/23 06:37:52;;;;;;;37.97;21.45;;;7.00;99.90;;;;;;5026491;28;20075;-63
2023/02/23 06:40:18;;;;;;;;;;;7.10;99.90;;;;;;5026537;28;20091;-66
2023/02/23 06:42:44;;;;;;;47.22;24.65;;;7.00;99.90;;;;;;5026051;28;19989;-66
2023/02/23 06:45:10;;;;;;;44.07;23.00;;;7.00;99.90;;;;;;5026079;28;20459;-65
2023/02/23 06:47:35;;;;;;;33.80;20.30;;;7.00;99.90;;;;;;5025717;28;20044;-63
2023/02/23 06:50:02;;;;;;;48.97;23.60;;;7.00;99.90;;;;;;5025649;28;20441;-64
2023/02/23 06:52:27;;;;;;;40.60;23.38;;;6.90;99.90;;;;;;5025876;28;20048;-63
2023/02/23 06:54:53;;;;;;;37.88;21.95;;;7.00;99.90;;;;;;5025892;28;20417;-63
2023/02/23 06:57:20;;;;;;;50.40;25.70;;;7.00;99.90;;;;;;5026008;28;20045;-63
2023/02/23 06:59:46;;;;;;;45.88;24.77;;;7.10;99.90;;;;;;5025806;28;20029;-62
2023/02/23 07:02:13;;;;;;;47.97;24.27;;;7.10;99.90;;;;;;5025917;28;20040;-63
2023/02/23 07:04:38;;;;;;;48.08;22.50;;;7.10;99.90;;;;;;5026027;28;20041;-70
2023/02/23 07:07:04;;;;;;;46.90;24.77;;;7.20;99.90;;;;;;5023674;28;20033;-69
2023/02/23 07:09:30;;;;;;;42.50;21.80;;;7.30;99.90;;;;;;5023559;28;20033;-75
2023/02/23 07:11:55;;;;;;;40.97;22.48;;;7.20;99.90;;;;;;5021738;28;20084;-72
2023/02/23 07:14:21;;;;;;;51.87;23.77;;;7.20;99.90;;;;;;5023567;28;20889;-70
2023/02/23 07:16:47;;;;;;;46.08;24.05;;;7.40;99.90;;;;;;5026450;28;20798;-68
2023/02/23 07:19:13;;;;;;;55.45;26.90;;;7.40;99.90;;;;;;5023184;28;20053;-71
2023/02/23 07:21:38;;;;;;;49.60;24.70;;;7.60;99.90;;;;;;5025333;28;20493;-71
2023/02/23 07:24:04;;;;;;;44.90;23.57;;;7.60;99.90;;;;;;5024927;28;20065;-70
2023/02/23 07:26:33;;;;;;;46.25;24.38;;;7.70;99.90;;;;;;5025288;28;20180;-75
2023/02/23 07:28:59;;;;;;;48.67;25.23;;;7.80;99.90;;;;;;5024893;28;20033;-66
2023/02/23 07:31:25;;;;;;;41.97;23.75;;;7.90;99.90;;;;;;5024977;28;20052;-69
2023/02/23 07:33:54;;;;;;;46.08;26.70;;;7.90;99.90;;;;;;5024460;28;20108;-68
2023/02/23 07:36:21;;;;;;;61.28;28.00;;;8.00;99.90;;;;;;5023616;28;20079;-68
2023/02/23 07:38:47;;;;;;;52.13;27.63;;;8.10;99.90;;;;;;5024417;28;20033;-67
2023/02/23 07:41:12;;;;;;;48.40;27.60;;;8.30;99.90;;;;;;5024775;28;20025;-67
2023/02/23 07:43:38;;;;;;;52.83;28.27;;;8.60;99.90;;;;;;5025987;28;20038;-66
2023/02/23 07:46:04;;;;;;;55.10;27.97;;;9.10;99.90;;;;;;5026530;28;20029;-68
2023/02/23 07:48:30;;;;;;;58.78;29.40;;;9.10;99.90;;;;;;5028539;28;20862;-69
2023/02/23 07:50:56;;;;;;;53.53;29.13;;;9.30;99.90;;;;;;5027379;28;20029;-69
2023/02/23 07:53:22;;;;;;;47.00;26.90;;;9.70;99.90;;;;;;5028036;28;20048;-68
2023/02/23 07:55:55;;;;;;;48.85;27.17;;;10.60;99.90;;;;;;5029174;28;20040;-65
2023/02/23 07:58:21;;;;;;;51.40;26.33;;;11.50;99.90;;;;;;5027452;28;20041;-65
2023/02/23 08:00:47;;;;;;;46.33;25.27;;;11.80;99.90;;;;;;5028349;28;20100;-64
2023/02/23 08:03:12;;;;;;;44.28;22.92;;;12.20;99.90;;;;;;5024491;28;20030;-65
2023/02/23 08:05:38;;;;;;;49.77;24.57;;;12.60;99.90;;;;;;5026389;28;20041;-65
2023/02/23 08:08:05;;;;;;;41.92;24.38;;;12.60;99.90;;;;;;5029270;28;20390;-65
2023/02/23 08:10:30;;;;;;;43.03;22.42;;;12.90;99.90;;;;;;5026739;28;20440;-65
2023/02/23 08:12:57;;;;;;;42.00;23.47;;;13.30;99.90;;;;;;5026140;28;20021;-65
2023/02/23 08:15:23;;;;;;;40.65;22.52;;;13.20;99.90;;;;;;5027937;28;20280;-66
2023/02/23 08:17:49;;;;;;;41.85;21.48;;;13.60;99.90;;;;;;5028306;28;20116;-61
2023/02/23 08:20:15;;;;;;;37.70;22.73;;;14.00;99.90;;;;;;5028373;28;20132;-62
2023/02/23 08:22:41;;;;;;;40.77;21.03;;;13.90;99.90;;;;;;5025563;28;20071;-62
2023/02/23 08:25:07;;;;;;;41.37;20.70;;;14.10;99.90;;;;;;5025699;28;20025;-60
2023/02/23 08:27:34;;;;;;;37.80;21.55;;;13.50;99.90;;;;;;5025154;28;20033;-61
2023/02/23 08:30:02;;;;;;;44.47;22.25;;;14.00;99.90;;;;;;5025164;28;20033;-61
2023/02/23 08:32:29;;;;;;;34.95;21.75;;;13.60;99.90;;;;;;5026082;28;20048;-61
2023/02/23 08:34:56;;;;;;;44.70;22.60;;;13.30;99.90;;;;;;5024910;28;20026;-62
2023/02/23 08:37:23;;;;;;;39.40;22.85;;;12.30;99.90;;;;;;5028213;28;20425;-61
2023/02/23 08:39:49;;;;;;;36.63;22.23;;;11.70;99.90;;;;;;5028717;28;20382;-61
2023/02/23 08:42:15;;;;;;;40.50;22.87;;;11.50;99.90;;;;;;5028220;28;20056;-61
2023/02/23 08:44:40;;;;;;;45.67;23.77;;;11.40;99.90;;;;;;5028331;28;20544;-62
2023/02/23 08:47:06;;;;;;;42.13;23.30;;;11.50;99.90;;;;;;5027067;28;20112;-61
2023/02/23 08:49:32;;;;;;;41.40;22.73;;;11.70;99.90;;;;;;5026280;28;20033;-62
2023/02/23 08:51:57;;;;;;;39.70;23.53;;;12.20;99.90;;;;;;5027015;28;20116;-62
2023/02/23 08:54:23;;;;;;;47.47;23.17;;;12.60;99.90;;;;;;5025941;28;20071;-62
2023/02/23 08:56:49;;;;;;;46.73;22.17;;;12.40;99.90;;;;;;5027042;28;20053;-61
2023/02/23 08:59:14;;;;;;;42.43;23.63;;;12.20;99.90;;;;;;5025511;28;20041;-60
2023/02/23 09:01:41;;;;;;;43.63;23.83;;;11.90;99.90;;;;;;5026226;28;20133;-61
2023/02/23 09:04:07;;;;;;;42.28;22.00;;;12.30;99.90;;;;;;5027817;28;20095;-60
2023/02/23 09:06:34;;;;;;;37.35;21.25;;;12.40;99.90;;;;;;5028047;28;20497;-61
2023/02/23 09:08:59;;;;;;;37.67;22.45;;;13.00;99.90;;;;;;5027294;28;20041;-61
2023/02/23 09:11:25;;;;;;;39.73;23.70;;;13.40;99.90;;;;;;5026213;28;20025;-61
2023/02/23 09:13:51;;;;;;;47.58;23.05;;;13.30;99.90;;;;;;5026211;28;20026;-61
2023/02/23 09:16:17;;;;;;;40.57;23.13;;;13.00;99.90;;;;;;5027151;28;20474;-62
2023/02/23 09:18:42;;;;;;;40.42;21.98;;;12.20;99.90;;;;;;5027428;28;20051;-61
2023/02/23 09:21:17;;;;;;;41.20;22.53;;;11.80;99.90;;;;;;5027169;28;20041;-61
2023/02/23 09:23:48;;;;;;;39.88;23.52;;;11.70;99.90;;;;;;5023600;28;20075;-61
2023/02/23 09:26:16;;;;;;;40.28;20.77;;;11.90;99.90;;;;;;5025868;28;20107;-60
2023/02/23 09:28:42;;;;;;;39.33;21.52;;;12.10;99.90;;;;;;5026973;28;20494;-61
2023/02/23 09:31:10;;;;;;;35.50;20.57;;;12.10;99.90;;;;;;5026247;28;20048;-61
2023/02/23 09:33:35;;;;;;;45.35;21.50;;;12.00;99.90;;;;;;5025669;28;20033;-61
2023/02/23 09:36:16;;;;;;;35.20;20.53;;;12.20;99.90;;;;;;5027039;28;20527;-61
2023/02/23 09:38:43;;;;;;;40.28;22.30;;;12.30;99.90;;;;;;5026878;28;20413;-61
2023/02/23 09:41:45;;;;;;;38.33;20.73;;;12.40;99.90;;;;;;5027129;28;20087;-69
2023/02/23 09:44:40;;;;;;;33.58;19.73;;;12.70;99.90;;;;;;5024665;28;20504;-66
2023/02/23 09:47:31;;;;;;;37.83;20.00;;;13.10;99.90;;;;;;5025920;28;20059;-68
2023/02/23 09:50:01;;;;;;;33.22;18.77;;;14.90;99.90;;;;;;5025359;28;20596;-68
2023/02/23 09:52:37;;;;;;;35.47;19.40;;;16.20;99.90;;;;;;5023703;28;20521;-68
2023/02/23 09:55:03;;;;;;;43.22;23.90;;;17.20;99.90;;;;;;5022988;28;20049;-69
2023/02/23 09:57:37;;;;;;;43.15;22.08;;;16.60;99.90;;;;;;5023506;28;20121;-70
2023/02/23 10:00:18;;;;;;;40.25;22.10;;;16.30;99.90;;;;;;5023417;28;20033;-63
2023/02/23 10:03:06;;;;;;;35.60;20.02;;;16.90;99.90;;;;;;5021922;28;20116;-67
2023/02/23 10:05:37;;;;;;;27.58;18.58;;;18.10;99.50;;;;;;5024894;28;20555;-68
2023/02/23 10:08:12;;;;;;;30.20;18.35;;;17.80;99.00;;;;;;5020302;28;20512;-68
2023/02/23 10:10:37;;;;;;;32.53;19.08;;;17.20;99.90;;;;;;5026382;28;20033;-69
2023/02/23 10:13:32;;;;;;;38.33;19.20;;;16.30;99.90;;;;;;5023845;28;20036;-68
2023/02/23 10:16:22;;;;;;;28.70;17.98;;;15.70;99.90;;;;;;5023168;28;20026;-64
2023/02/23 10:18:59;;;;;;;37.55;19.13;;;15.50;99.90;;;;;;5024810;28;20060;-64
2023/02/23 10:21:49;;;;;;;29.90;18.80;;;15.70;99.90;;;;;;5053269;28;20519;-65
2023/02/23 10:24:27;;;;;;;36.38;19.13;;;15.90;99.90;;;;;;5025300;28;20033;-67
2023/02/23 10:26:59;;;;;;;32.50;19.02;;;17.80;99.90;;;;;;5024543;28;20175;-68
2023/02/23 10:29:53;;;;;;;31.58;18.33;;;18.40;99.60;;;;;;5023987;28;20028;-67
2023/02/23 10:32:44;;;;;;;31.38;17.30;;;18.10;98.20;;;;;;5018105;28;20041;-64
2023/02/23 10:35:13;;;;;;;32.63;18.50;;;17.10;99.90;;;;;;5039192;28;20064;-65
2023/02/23 10:37:38;;;;;;;31.92;17.73;;;16.60;99.90;;;;;;5025529;28;20041;-63
2023/02/23 10:40:06;;;;;;;31.90;18.45;;;16.30;99.90;;;;;;5025332;28;20033;-66
2023/02/23 10:42:33;;;;;;;28.88;17.20;;;15.80;99.90;;;;;;5025176;28;20061;-65
2023/02/23 10:44:59;;;;;;;39.45;17.15;;;15.50;99.90;;;;;;5020613;28;20083;-68
2023/02/23 10:47:32;;;;;;;28.35;17.08;;;15.10;99.90;;;;;;5017959;28;20030;-68
2023/02/23 10:49:58;;;;;;;27.88;17.85;;;15.00;99.90;;;;;;5025327;28;20579;-64
2023/02/23 10:52:48;;;;;;;31.40;18.30;;;14.90;99.90;;;;;;5025152;28;20037;-66
2023/02/23 10:55:27;;;;;;;26.67;18.02;;;15.00;99.90;;;;;;5021823;28;20038;-64
2023/02/23 10:58:02;;;;;;;39.80;17.38;;;15.10;99.90;;;;;;5020236;28;20076;-64
2023/02/23 11:00:31;;;;;;;33.40;17.23;;;15.20;99.90;;;;;;5020551;28;20789;-68
2023/02/23 11:02:59;;;;;;;31.48;16.85;;;15.60;99.90;;;;;;5023728;28;20628;-70
2023/02/23 11:05:44;;;;;;;33.85;19.17;;;15.90;99.90;;;;;;5024396;28;20104;-69
2023/02/23 11:08:22;;;;;;;29.50;17.15;;;15.80;99.90;;;;;;5025256;28;20033;-66
2023/02/23 11:11:14;;;;;;;28.33;18.90;;;15.70;99.90;;;;;;5007463;28;20557;-64
2023/02/23 11:13:48;;;;;;;31.33;17.95;;;15.60;99.90;;;;;;5023916;28;20040;-64
2023/02/23 11:16:23;;;;;;;36.88;17.77;;;15.30;99.90;;;;;;5035887;28;20413;-66
2023/02/23 11:19:01;;;;;;;34.30;19.08;;;15.20;99.90;;;;;;5022788;28;20033;-63
2023/02/23 11:21:32;;;;;;;38.08;16.98;;;15.50;99.90;;;;;;5025470;28;20068;-63
2023/02/23 11:24:09;;;;;;;32.45;18.40;;;15.70;99.90;;;;;;5026261;28;20115;-63
2023/02/23 11:26:38;;;;;;;34.25;16.83;;;15.80;99.90;;;;;;5019093;28;20351;-64
2023/02/23 11:29:24;;;;;;;27.83;16.83;;;15.90;99.90;;;;;;5025850;28;20107;-65
2023/02/23 11:31:55;;;;;;;29.33;17.20;;;16.00;99.90;;;;;;5021563;28;20055;-68
2023/02/23 11:34:34;;;;;;;27.35;16.63;;;15.90;99.90;;;;;;5025142;28;20030;-67
2023/02/23 11:37:22;;;;;;;27.35;16.98;;;15.70;99.90;;;;;;5024929;28;20052;-67
2023/02/23 11:39:50;;;;;;;;;;;15.70;99.90;;;;;;5026474;28;20033;-69
2023/02/23 11:42:18;;;;;;;32.72;16.85;;;15.80;99.90;;;;;;5025687;28;19913;-68
2023/02/23 11:45:20;;;;;;;26.33;17.02;;;15.70;99.90;;;;;;5025635;28;20041;-67
2023/02/23 11:47:58;;;;;;;29.00;16.30;;;15.60;99.90;;;;;;5017228;28;20041;-68
2023/02/23 11:50:31;;;;;;;29.92;16.40;;;15.50;99.90;;;;;;5025598;28;20535;-67
2023/02/23 11:53:00;;;;;;;28.08;15.57;;;15.30;99.90;;;;;;5025885;28;20125;-70
2023/02/23 11:55:27;;;;;;;26.50;14.18;;;15.20;99.90;;;;;;5025709;28;20490;-68
2023/02/23 11:58:07;;;;;;;29.60;17.30;;;15.40;99.90;;;;;;5025748;28;20038;-69
2023/02/23 12:00:33;;;;;;;33.05;15.85;;;15.40;99.90;;;;;;5022232;28;20124;-68
2023/02/23 12:03:00;;;;;;;30.73;17.45;;;15.40;99.90;;;;;;5026085;28;20097;-68
2023/02/23 12:05:30;;;;;;;31.70;17.00;;;15.50;99.90;;;;;;5025992;28;20032;-69
2023/02/23 12:08:10;;;;;;;29.45;17.42;;;15.60;99.90;;;;;;5018562;28;20041;-67
2023/02/23 12:10:57;;;;;;;26.10;15.27;;;15.70;99.90;;;;;;5026009;28;20021;-68
2023/02/23 12:13:46;;;;;;;25.38;16.33;;;15.70;99.90;;;;;;5023608;28;20083;-69
2023/02/23 12:16:23;;;;;;;29.08;15.98;;;15.70;99.90;;;;;;5025158;28;20553;-68
2023/02/23 12:18:57;;;;;;;32.28;15.55;;;15.80;99.90;;;;;;5023947;28;20416;-68
2023/02/23 12:21:31;;;;;;;28.55;15.75;;;15.70;99.90;;;;;;5023324;28;20053;-69
2023/02/23 12:24:25;;;;;;;29.00;16.30;;;15.50;99.90;;;;;;5018732;28;20139;-68
2023/02/23 12:26:57;;;;;;;24.05;14.88;;;15.40;99.90;;;;;;5020558;28;20045;-67
2023/02/23 12:29:49;;;;;;;26.85;15.65;;;15.20;99.90;;;;;;5024915;28;20017;-68
2023/02/23 12:32:20;;;;;;;30.65;15.57;;;15.10;99.90;;;;;;5006377;28;20088;-68
2023/02/23 12:35:01;;;;;;;31.38;15.82;;;15.10;99.90;;;;;;5028475;28;20037;-67
2023/02/23 12:37:40;;;;;;;27.17;14.55;;;14.90;99.90;;;;;;5019972;28;20033;-68
2023/02/23 12:40:18;;;;;;;35.05;15.32;;;14.80;99.90;;;;;;5025709;28;20030;-68
2023/02/23 12:42:57;;;;;;;32.38;14.85;;;15.00;99.90;;;;;;5028708;28;20108;-69
2023/02/23 12:46:01;;;;;;;29.23;15.70;;;15.20;99.90;;;;;;5024992;28;20025;-66
2023/02/23 12:48:36;;;;;;;28.33;15.15;;;15.70;99.90;;;;;;5028490;28;20389;-67
2023/02/23 12:51:13;;;;;;;34.67;15.98;;;15.70;99.90;;;;;;5029179;28;20044;-70
2023/02/23 12:53:43;;;;;;;34.08;14.10;;;15.90;99.90;;;;;;5028803;28;20034;-67
2023/02/23 12:56:11;;;;;;;28.27;15.65;;;15.90;99.90;;;;;;5028659;28;20413;-66
2023/02/23 12:58:45;;;;;;;33.35;16.85;;;15.90;99.90;;;;;;5028677;28;20046;-68
2023/02/23 13:01:20;;;;;;;27.02;15.50;;;15.90;99.90;;;;;;5030149;28;20454;-67
2023/02/23 13:03:51;;;;;;;24.88;13.60;;;15.70;99.90;;;;;;5028227;28;20087;-69
2023/02/23 13:06:41;;;;;;;26.42;14.98;;;15.90;99.90;;;;;;5027519;28;20069;-65
2023/02/23 13:09:06;;;;;;;23.42;13.95;;;16.00;99.90;;;;;;5028204;28;20044;-66
2023/02/23 13:11:56;;;;;;;29.67;13.17;;;15.90;99.90;;;;;;5025867;28;20033;-63
2023/02/23 13:14:38;;;;;;;26.52;14.23;;;15.80;99.90;;;;;;5025871;28;20037;-65
2023/02/23 13:17:04;;;;;;;23.58;13.60;;;15.80;99.90;;;;;;5027946;28;20080;-66
2023/02/23 13:19:41;;;;;;;25.43;12.20;;;16.00;99.90;;;;;;5025972;28;20065;-65
2023/02/23 13:22:24;;;;;;;27.05;12.43;;;16.00;99.90;;;;;;5027925;28;20048;-70
2023/02/23 13:24:52;;;;;;;25.15;12.27;;;16.20;99.90;;;;;;5025623;28;20021;-69
2023/02/23 13:27:31;;;;;;;26.17;12.52;;;16.30;99.90;;;;;;5027401;28;20037;-67
2023/02/23 13:29:57;;;;;;;22.63;13.65;;;16.30;99.90;;;;;;5026718;28;20101;-64
2023/02/23 13:32:28;;;;;;;26.35;13.48;;;16.20;99.90;;;;;;5027175;28;20067;-68
2023/02/23 13:34:56;;;;;;;28.23;13.13;;;16.10;99.90;;;;;;5028152;28;20037;-65
2023/02/23 13:37:26;;;;;;;28.95;15.20;;;16.00;99.90;;;;;;5027710;28;20041;-63
2023/02/23 13:39:57;;;;;;;30.27;13.20;;;16.00;99.90;;;;;;5027997;28;20030;-62
2023/02/23 13:42:39;;;;;;;26.08;13.55;;;16.00;99.80;;;;;;5027095;28;20029;-67
2023/02/23 13:45:52;;;;;;;30.60;13.25;;;16.10;99.90;;;;;;5027410;28;20034;-69
2023/02/23 13:48:28;;;;;;;31.17;13.52;;;16.10;99.90;;;;;;4992033;28;20030;-69
2023/02/23 13:51:12;;;;;;;26.87;12.83;;;16.10;99.90;;;;;;5026366;28;20512;-68
2023/02/23 13:54:06;;;;;;;27.27;13.35;;;16.00;99.90;;;;;;5027322;28;20120;-65
2023/02/23 13:56:41;;;;;;;23.17;12.02;;;15.80;99.90;;;;;;5020972;28;20524;-67
2023/02/23 13:59:14;;;;;;;27.25;13.45;;;15.70;99.90;;;;;;5027874;28;20069;-69
2023/02/23 14:01:46;;;;;;;31.92;13.18;;;15.70;99.90;;;;;;5028219;28;20374;-67
2023/02/23 14:04:25;;;;;;;21.83;12.60;;;15.60;99.90;;;;;;5032635;28;20033;-67
2023/02/23 14:07:04;;;;;;;26.20;13.57;;;15.50;99.90;;;;;;5027073;28;20044;-69
2023/02/23 14:09:34;;;;;;;25.38;12.95;;;15.50;99.90;;;;;;5018227;28;20030;-68
2023/02/23 14:12:15;;;;;;;28.95;13.82;;;15.40;99.90;;;;;;5025156;28;20045;-66
2023/02/23 14:14:43;;;;;;;25.13;12.55;;;15.30;99.90;;;;;;5026268;28;20029;-67